sensor_id;sensor_type;location;lat;lon;timestamp;temperature;humidity
18898;DHT22;9581;49.484;8.556;2022-09-28T00:00:36;11.60;99.90
18898;DHT22;9581;49.484;8.556;2022-09-28T00:03:03;11.70;99.90
18898;DHT22;9581;49.484;8.556;2022-09-28T00:05:31;11.60;99.90
18898;DHT22;9581;49.484;8.556;2022-09-28T00:07:58;11.60;99.90
18898;DHT22;9581;49.484;8.556;2022-09-28T00:10:24;11.70;99.90
18898;DHT22;9581;49.484;8.556;2022-09-28T00:12:52;11.70;99.90
18898;DHT22;9581;49.484;8.556;2022-09-28T00:15:19;11.40;99.90
18898;DHT22;9581;49.484;8.556;2022-09-28T00:17:48;11.10;99.90
18898;DHT22;9581;49.484;8.556;2022-09-28T00:20:14;11.10;99.90
18898;DHT22;9581;49.484;8.556;2022-09-28T00:22:42;11.00;99.90
18898;DHT22;9581;49.484;8.556;2022-09-28T00:25:09;10.80;99.90
18898;DHT22;9581;49.484;8.556;2022-09-28T00:27:36;11.00;99.90
18898;DHT22;9581;49.484;8.556;2022-09-28T00:30:03;11.40;99.90
18898;DHT22;9581;49.484;8.556;2022-09-28T00:32:30;11.30;99.90
18898;DHT22;9581;49.484;8.556;2022-09-28T00:34:58;10.90;99.90
18898;DHT22;9581;49.484;8.556;2022-09-28T00:37:25;10.90;99.90
18898;DHT22;9581;49.484;8.556;2022-09-28T00:39:52;11.20;99.90
18898;DHT22;9581;49.484;8.556;2022-09-28T00:42:20;10.90;99.90
18898;DHT22;9581;49.484;8.556;2022-09-28T00:44:48;11.00;99.90
18898;DHT22;9581;49.484;8.556;2022-09-28T00:47:43;11.10;99.90
18898;DHT22;9581;49.484;8.556;2022-09-28T00:50:23;11.20;99.90
18898;DHT22;9581;49.484;8.556;2022-09-28T00:52:53;10.80;99.90
18898;DHT22;9581;49.484;8.556;2022-09-28T00:55:29;10.80;99.90
18898;DHT22;9581;49.484;8.556;2022-09-28T00:57:59;11.20;99.90
18898;DHT22;9581;49.484;8.556;2022-09-28T01:00:27;11.30;99.90
18898;DHT22;9581;49.484;8.556;2022-09-28T01:02:54;11.00;99.90
18898;DHT22;9581;49.484;8.556;2022-09-28T01:05:23;11.20;99.90
18898;DHT22;9581;49.484;8.556;2022-09-28T01:07:50;10.80;99.90
18898;DHT22;9581;49.484;8.556;2022-09-28T01:10:17;11.00;99.90
18898;DHT22;9581;49.484;8.556;2022-09-28T01:12:44;11.20;99.90
18898;DHT22;9581;49.484;8.556;2022-09-28T01:15:11;11.50;99.90
18898;DHT22;9581;49.484;8.556;2022-09-28T01:17:55;11.20;99.90
18898;DHT22;9581;49.484;8.556;2022-09-28T01:20:33;11.20;99.90
18898;DHT22;9581;49.484;8.556;2022-09-28T01:23:31;11.10;99.90
18898;DHT22;9581;49.484;8.556;2022-09-28T01:29:12;11.50;99.90
18898;DHT22;9581;49.484;8.556;2022-09-28T01:31:46;11.70;99.90
18898;DHT22;9581;49.484;8.556;2022-09-28T01:34:17;11.50;99.90
18898;DHT22;9581;49.484;8.556;2022-09-28T01:36:48;11.40;99.90
18898;DHT22;9581;49.484;8.556;2022-09-28T01:39:19;11.20;99.90
18898;DHT22;9581;49.484;8.556;2022-09-28T01:41:50;11.40;99.90
18898;DHT22;9581;49.484;8.556;2022-09-28T01:44:20;11.50;99.90
18898;DHT22;9581;49.484;8.556;2022-09-28T01:46:49;11.60;99.90
18898;DHT22;9581;49.484;8.556;2022-09-28T01:49:20;11.20;99.90
18898;DHT22;9581;49.484;8.556;2022-09-28T01:51:50;11.20;99.90
18898;DHT22;9581;49.484;8.556;2022-09-28T01:54:21;11.20;99.90
18898;DHT22;9581;49.484;8.556;2022-09-28T01:56:54;11.50;99.90
18898;DHT22;9581;49.484;8.556;2022-09-28T01:59:26;11.70;99.90
18898;DHT22;9581;49.484;8.556;2022-09-28T02:01:55;11.70;99.90
18898;DHT22;9581;49.484;8.556;2022-09-28T02:04:25;11.70;99.90
18898;DHT22;9581;49.484;8.556;2022-09-28T02:06:56;11.80;99.90
18898;DHT22;9581;49.484;8.556;2022-09-28T02:09:27;11.50;99.90
18898;DHT22;9581;49.484;8.556;2022-09-28T02:12:00;11.70;99.90
18898;DHT22;9581;49.484;8.556;2022-09-28T02:14:28;11.80;99.90
18898;DHT22;9581;49.484;8.556;2022-09-28T02:16:57;11.70;99.90
18898;DHT22;9581;49.484;8.556;2022-09-28T02:19:25;11.80;99.90
18898;DHT22;9581;49.484;8.556;2022-09-28T02:22:15;11.60;99.90
18898;DHT22;9581;49.484;8.556;2022-09-28T02:24:54;11.10;99.90
18898;DHT22;9581;49.484;8.556;2022-09-28T02:27:30;11.40;99.90
18898;DHT22;9581;49.484;8.556;2022-09-28T02:30:00;11.70;99.90
18898;DHT22;9581;49.484;8.556;2022-09-28T02:32:27;11.80;99.90
18898;DHT22;9581;49.484;8.556;2022-09-28T02:34:56;11.80;99.90
18898;DHT22;9581;49.484;8.556;2022-09-28T02:37:24;11.80;99.90
18898;DHT22;9581;49.484;8.556;2022-09-28T02:39:52;11.50;99.90
18898;DHT22;9581;49.484;8.556;2022-09-28T02:42:20;11.40;99.90
18898;DHT22;9581;49.484;8.556;2022-09-28T02:45:07;11.30;99.90
18898;DHT22;9581;49.484;8.556;2022-09-28T02:47:51;11.00;99.90
18898;DHT22;9581;49.484;8.556;2022-09-28T02:50:28;11.20;99.90
18898;DHT22;9581;49.484;8.556;2022-09-28T02:55:59;11.20;99.90
18898;DHT22;9581;49.484;8.556;2022-09-28T02:58:34;11.30;99.90
18898;DHT22;9581;49.484;8.556;2022-09-28T03:01:13;11.60;99.90
18898;DHT22;9581;49.484;8.556;2022-09-28T03:03:49;11.60;99.90
18898;DHT22;9581;49.484;8.556;2022-09-28T03:06:22;11.70;99.90
18898;DHT22;9581;49.484;8.556;2022-09-28T03:08:53;11.80;99.90
18898;DHT22;9581;49.484;8.556;2022-09-28T03:11:27;11.80;99.90
18898;DHT22;9581;49.484;8.556;2022-09-28T03:13:56;11.90;99.90
18898;DHT22;9581;49.484;8.556;2022-09-28T03:16:24;11.90;99.90
18898;DHT22;9581;49.484;8.556;2022-09-28T03:18:52;11.60;99.90
18898;DHT22;9581;49.484;8.556;2022-09-28T03:21:18;11.50;99.90
18898;DHT22;9581;49.484;8.556;2022-09-28T03:23:45;11.40;99.90
18898;DHT22;9581;49.484;8.556;2022-09-28T03:26:13;11.30;99.90
18898;DHT22;9581;49.484;8.556;2022-09-28T03:28:41;11.40;99.90
18898;DHT22;9581;49.484;8.556;2022-09-28T03:31:08;11.20;99.90
18898;DHT22;9581;49.484;8.556;2022-09-28T03:33:36;11.40;99.90
18898;DHT22;9581;49.484;8.556;2022-09-28T03:36:03;11.40;99.90
18898;DHT22;9581;49.484;8.556;2022-09-28T03:38:33;11.50;99.90
18898;DHT22;9581;49.484;8.556;2022-09-28T03:40:59;11.50;99.90
18898;DHT22;9581;49.484;8.556;2022-09-28T03:43:27;11.50;99.90
18898;DHT22;9581;49.484;8.556;2022-09-28T03:45:56;11.60;99.90
18898;DHT22;9581;49.484;8.556;2022-09-28T03:48:24;11.80;99.90
18898;DHT22;9581;49.484;8.556;2022-09-28T03:50:53;11.80;99.90
18898;DHT22;9581;49.484;8.556;2022-09-28T03:53:21;11.90;99.90
18898;DHT22;9581;49.484;8.556;2022-09-28T03:55:48;11.90;99.90
18898;DHT22;9581;49.484;8.556;2022-09-28T03:58:17;11.40;99.90
18898;DHT22;9581;49.484;8.556;2022-09-28T04:00:44;11.60;99.90
18898;DHT22;9581;49.484;8.556;2022-09-28T04:03:11;11.30;99.90
18898;DHT22;9581;49.484;8.556;2022-09-28T04:05:37;11.00;99.90
18898;DHT22;9581;49.484;8.556;2022-09-28T04:08:05;10.80;99.90
18898;DHT22;9581;49.484;8.556;2022-09-28T04:10:32;10.80;99.90
18898;DHT22;9581;49.484;8.556;2022-09-28T04:12:59;11.00;99.90
18898;DHT22;9581;49.484;8.556;2022-09-28T04:15:26;10.80;99.90
18898;DHT22;9581;49.484;8.556;2022-09-28T04:17:52;11.00;99.90
18898;DHT22;9581;49.484;8.556;2022-09-28T04:20:19;11.00;99.90
18898;DHT22;9581;49.484;8.556;2022-09-28T04:22:46;10.90;99.90
18898;DHT22;9581;49.484;8.556;2022-09-28T04:25:14;10.90;99.90
18898;DHT22;9581;49.484;8.556;2022-09-28T04:27:41;11.00;99.90
18898;DHT22;9581;49.484;8.556;2022-09-28T04:30:25;10.90;99.90
18898;DHT22;9581;49.484;8.556;2022-09-28T04:32:52;10.80;99.90
18898;DHT22;9581;49.484;8.556;2022-09-28T04:35:19;10.80;99.90
18898;DHT22;9581;49.484;8.556;2022-09-28T04:37:46;10.80;99.90
18898;DHT22;9581;49.484;8.556;2022-09-28T04:40:14;10.80;99.90
18898;DHT22;9581;49.484;8.556;2022-09-28T04:42:41;10.90;99.90
18898;DHT22;9581;49.484;8.556;2022-09-28T04:45:08;10.80;99.90
18898;DHT22;9581;49.484;8.556;2022-09-28T04:47:35;11.00;99.90
18898;DHT22;9581;49.484;8.556;2022-09-28T04:50:02;10.90;99.90
18898;DHT22;9581;49.484;8.556;2022-09-28T04:52:29;10.70;99.90
18898;DHT22;9581;49.484;8.556;2022-09-28T04:54:56;10.60;99.90
18898;DHT22;9581;49.484;8.556;2022-09-28T04:57:24;10.70;99.90
18898;DHT22;9581;49.484;8.556;2022-09-28T04:59:51;10.70;99.90
18898;DHT22;9581;49.484;8.556;2022-09-28T05:02:17;10.90;99.90
18898;DHT22;9581;49.484;8.556;2022-09-28T05:04:44;11.00;99.90
18898;DHT22;9581;49.484;8.556;2022-09-28T05:07:11;10.80;99.90
18898;DHT22;9581;49.484;8.556;2022-09-28T05:09:38;10.80;99.90
18898;DHT22;9581;49.484;8.556;2022-09-28T05:12:05;10.70;99.90
18898;DHT22;9581;49.484;8.556;2022-09-28T05:14:33;10.70;99.90
18898;DHT22;9581;49.484;8.556;2022-09-28T05:17:00;10.70;99.90
18898;DHT22;9581;49.484;8.556;2022-09-28T05:19:27;10.80;99.90
18898;DHT22;9581;49.484;8.556;2022-09-28T05:21:54;10.80;99.90
18898;DHT22;9581;49.484;8.556;2022-09-28T05:24:22;10.70;99.90
18898;DHT22;9581;49.484;8.556;2022-09-28T05:26:49;10.90;99.90
18898;DHT22;9581;49.484;8.556;2022-09-28T05:29:16;10.80;99.90
18898;DHT22;9581;49.484;8.556;2022-09-28T05:31:44;10.80;99.90
18898;DHT22;9581;49.484;8.556;2022-09-28T05:34:11;11.00;99.90
18898;DHT22;9581;49.484;8.556;2022-09-28T05:36:38;11.00;99.90
18898;DHT22;9581;49.484;8.556;2022-09-28T05:39:07;10.90;99.90
18898;DHT22;9581;49.484;8.556;2022-09-28T05:41:34;11.10;99.90
18898;DHT22;9581;49.484;8.556;2022-09-28T05:44:01;10.90;99.90
18898;DHT22;9581;49.484;8.556;2022-09-28T05:46:27;11.10;99.90
18898;DHT22;9581;49.484;8.556;2022-09-28T05:48:55;11.30;99.90
18898;DHT22;9581;49.484;8.556;2022-09-28T05:51:24;11.10;99.90
18898;DHT22;9581;49.484;8.556;2022-09-28T05:53:53;11.10;99.90
18898;DHT22;9581;49.484;8.556;2022-09-28T05:56:20;11.10;99.90
18898;DHT22;9581;49.484;8.556;2022-09-28T05:58:46;10.90;99.90
18898;DHT22;9581;49.484;8.556;2022-09-28T06:01:13;10.80;99.90
18898;DHT22;9581;49.484;8.556;2022-09-28T06:03:40;10.80;99.90
18898;DHT22;9581;49.484;8.556;2022-09-28T06:06:08;10.90;99.90
18898;DHT22;9581;49.484;8.556;2022-09-28T06:08:35;10.90;99.90
18898;DHT22;9581;49.484;8.556;2022-09-28T06:11:02;10.90;99.90
18898;DHT22;9581;49.484;8.556;2022-09-28T06:13:28;10.80;99.90
18898;DHT22;9581;49.484;8.556;2022-09-28T06:15:55;10.90;99.90
18898;DHT22;9581;49.484;8.556;2022-09-28T06:18:22;10.90;99.90
18898;DHT22;9581;49.484;8.556;2022-09-28T06:20:49;11.00;99.90
18898;DHT22;9581;49.484;8.556;2022-09-28T06:23:17;11.00;99.90
18898;DHT22;9581;49.484;8.556;2022-09-28T06:25:44;11.20;99.90
18898;DHT22;9581;49.484;8.556;2022-09-28T06:28:13;10.90;99.90
18898;DHT22;9581;49.484;8.556;2022-09-28T06:30:41;10.90;99.90
18898;DHT22;9581;49.484;8.556;2022-09-28T06:33:10;10.90;99.90
18898;DHT22;9581;49.484;8.556;2022-09-28T06:35:37;11.10;99.90
18898;DHT22;9581;49.484;8.556;2022-09-28T06:38:05;11.10;99.90
18898;DHT22;9581;49.484;8.556;2022-09-28T06:40:33;11.30;99.90
18898;DHT22;9581;49.484;8.556;2022-09-28T06:43:02;11.20;99.90
18898;DHT22;9581;49.484;8.556;2022-09-28T06:45:31;11.30;99.90
18898;DHT22;9581;49.484;8.556;2022-09-28T06:47:59;11.50;99.90
18898;DHT22;9581;49.484;8.556;2022-09-28T06:50:27;11.60;99.90
18898;DHT22;9581;49.484;8.556;2022-09-28T06:52:57;11.70;99.90
18898;DHT22;9581;49.484;8.556;2022-09-28T06:55:24;11.40;99.90
18898;DHT22;9581;49.484;8.556;2022-09-28T06:57:57;11.20;99.90
18898;DHT22;9581;49.484;8.556;2022-09-28T07:00:25;11.50;99.90
18898;DHT22;9581;49.484;8.556;2022-09-28T07:02:52;11.40;99.90
18898;DHT22;9581;49.484;8.556;2022-09-28T07:05:19;11.40;99.90
18898;DHT22;9581;49.484;8.556;2022-09-28T07:07:48;11.60;99.90
18898;DHT22;9581;49.484;8.556;2022-09-28T07:10:15;11.60;99.90
18898;DHT22;9581;49.484;8.556;2022-09-28T07:12:42;11.70;99.90
18898;DHT22;9581;49.484;8.556;2022-09-28T07:15:10;11.60;99.90
18898;DHT22;9581;49.484;8.556;2022-09-28T07:17:37;11.60;99.90
18898;DHT22;9581;49.484;8.556;2022-09-28T07:20:04;11.60;99.90
18898;DHT22;9581;49.484;8.556;2022-09-28T07:22:31;11.40;99.90
18898;DHT22;9581;49.484;8.556;2022-09-28T07:24:59;11.70;99.90
18898;DHT22;9581;49.484;8.556;2022-09-28T07:27:26;11.60;99.90
18898;DHT22;9581;49.484;8.556;2022-09-28T07:29:53;11.70;99.90
18898;DHT22;9581;49.484;8.556;2022-09-28T07:32:21;11.60;99.90
18898;DHT22;9581;49.484;8.556;2022-09-28T07:34:48;11.90;99.90
18898;DHT22;9581;49.484;8.556;2022-09-28T07:37:15;12.20;99.90
18898;DHT22;9581;49.484;8.556;2022-09-28T07:39:43;11.90;99.90
18898;DHT22;9581;49.484;8.556;2022-09-28T07:42:27;11.80;99.90
18898;DHT22;9581;49.484;8.556;2022-09-28T07:44:54;11.90;99.90
18898;DHT22;9581;49.484;8.556;2022-09-28T07:47:23;12.20;99.90
18898;DHT22;9581;49.484;8.556;2022-09-28T07:49:51;12.50;99.90
18898;DHT22;9581;49.484;8.556;2022-09-28T07:52:19;12.60;99.90
18898;DHT22;9581;49.484;8.556;2022-09-28T07:54:48;12.80;99.90
18898;DHT22;9581;49.484;8.556;2022-09-28T07:57:16;12.70;99.90
18898;DHT22;9581;49.484;8.556;2022-09-28T07:59:43;13.20;99.90
18898;DHT22;9581;49.484;8.556;2022-09-28T08:02:11;13.00;99.90
18898;DHT22;9581;49.484;8.556;2022-09-28T08:04:39;12.90;99.90
18898;DHT22;9581;49.484;8.556;2022-09-28T08:07:08;12.90;99.90
18898;DHT22;9581;49.484;8.556;2022-09-28T08:09:35;12.60;99.90
18898;DHT22;9581;49.484;8.556;2022-09-28T08:12:03;12.40;99.90
18898;DHT22;9581;49.484;8.556;2022-09-28T08:14:30;12.50;99.90
18898;DHT22;9581;49.484;8.556;2022-09-28T08:16:58;12.70;99.90
18898;DHT22;9581;49.484;8.556;2022-09-28T08:19:25;12.60;99.90
18898;DHT22;9581;49.484;8.556;2022-09-28T08:22:14;12.90;99.90
18898;DHT22;9581;49.484;8.556;2022-09-28T08:24:40;13.20;99.90
18898;DHT22;9581;49.484;8.556;2022-09-28T08:27:06;13.40;99.90
18898;DHT22;9581;49.484;8.556;2022-09-28T08:29:35;13.50;99.90
18898;DHT22;9581;49.484;8.556;2022-09-28T08:32:01;13.50;99.90
18898;DHT22;9581;49.484;8.556;2022-09-28T08:34:29;13.40;99.90
18898;DHT22;9581;49.484;8.556;2022-09-28T08:36:56;13.60;99.90
18898;DHT22;9581;49.484;8.556;2022-09-28T08:39:24;13.30;99.90
18898;DHT22;9581;49.484;8.556;2022-09-28T08:41:59;13.30;99.90
18898;DHT22;9581;49.484;8.556;2022-09-28T08:44:36;13.60;99.90
18898;DHT22;9581;49.484;8.556;2022-09-28T08:47:06;13.50;99.90
18898;DHT22;9581;49.484;8.556;2022-09-28T08:49:57;13.80;99.90
18898;DHT22;9581;49.484;8.556;2022-09-28T08:52:29;13.60;99.90
18898;DHT22;9581;49.484;8.556;2022-09-28T08:55:02;13.80;99.90
18898;DHT22;9581;49.484;8.556;2022-09-28T08:57:32;13.50;99.90
18898;DHT22;9581;49.484;8.556;2022-09-28T09:00:05;13.40;99.90
18898;DHT22;9581;49.484;8.556;2022-09-28T09:02:33;13.20;99.90
18898;DHT22;9581;49.484;8.556;2022-09-28T09:05:03;13.00;99.90
18898;DHT22;9581;49.484;8.556;2022-09-28T09:07:57;13.40;99.90
18898;DHT22;9581;49.484;8.556;2022-09-28T09:10:46;14.10;99.90
18898;DHT22;9581;49.484;8.556;2022-09-28T09:13:48;14.50;99.90
18898;DHT22;9581;49.484;8.556;2022-09-28T09:16:27;14.80;99.90
18898;DHT22;9581;49.484;8.556;2022-09-28T09:19:01;14.40;99.90
18898;DHT22;9581;49.484;8.556;2022-09-28T09:21:39;14.30;99.90
18898;DHT22;9581;49.484;8.556;2022-09-28T09:24:17;14.10;99.90
18898;DHT22;9581;49.484;8.556;2022-09-28T09:26:54;14.20;99.90
18898;DHT22;9581;49.484;8.556;2022-09-28T09:29:30;14.20;99.90
18898;DHT22;9581;49.484;8.556;2022-09-28T09:32:08;14.10;99.90
18898;DHT22;9581;49.484;8.556;2022-09-28T09:37:58;14.00;99.90
18898;DHT22;9581;49.484;8.556;2022-09-28T09:40:43;14.30;99.90
18898;DHT22;9581;49.484;8.556;2022-09-28T09:43:41;14.50;99.90
18898;DHT22;9581;49.484;8.556;2022-09-28T09:46:15;15.10;99.90
18898;DHT22;9581;49.484;8.556;2022-09-28T09:48:49;14.60;99.90
18898;DHT22;9581;49.484;8.556;2022-09-28T09:51:23;14.40;99.90
18898;DHT22;9581;49.484;8.556;2022-09-28T09:53:54;14.50;99.90
18898;DHT22;9581;49.484;8.556;2022-09-28T09:56:31;15.10;99.90
18898;DHT22;9581;49.484;8.556;2022-09-28T09:59:04;14.70;99.90
18898;DHT22;9581;49.484;8.556;2022-09-28T10:01:34;14.70;99.90
18898;DHT22;9581;49.484;8.556;2022-09-28T10:04:02;14.30;99.90
18898;DHT22;9581;49.484;8.556;2022-09-28T10:06:32;14.10;99.90
18898;DHT22;9581;49.484;8.556;2022-09-28T10:09:03;14.40;99.90
18898;DHT22;9581;49.484;8.556;2022-09-28T10:11:33;15.20;99.90
18898;DHT22;9581;49.484;8.556;2022-09-28T10:14:03;15.40;99.90
18898;DHT22;9581;49.484;8.556;2022-09-28T10:16:31;15.50;99.90
18898;DHT22;9581;49.484;8.556;2022-09-28T10:18:58;15.70;99.90
18898;DHT22;9581;49.484;8.556;2022-09-28T10:21:26;15.90;99.90
18898;DHT22;9581;49.484;8.556;2022-09-28T10:23:56;16.70;99.90
18898;DHT22;9581;49.484;8.556;2022-09-28T10:26:24;16.60;99.90
18898;DHT22;9581;49.484;8.556;2022-09-28T10:28:55;16.20;99.90
18898;DHT22;9581;49.484;8.556;2022-09-28T10:31:38;16.20;99.90
18898;DHT22;9581;49.484;8.556;2022-09-28T10:34:07;16.30;99.90
18898;DHT22;9581;49.484;8.556;2022-09-28T10:37:00;16.20;99.90
18898;DHT22;9581;49.484;8.556;2022-09-28T10:39:31;15.90;99.90
18898;DHT22;9581;49.484;8.556;2022-09-28T10:42:00;16.20;99.90
18898;DHT22;9581;49.484;8.556;2022-09-28T10:44:29;16.90;99.90
18898;DHT22;9581;49.484;8.556;2022-09-28T10:47:00;17.20;99.90
18898;DHT22;9581;49.484;8.556;2022-09-28T10:49:35;17.10;99.90
18898;DHT22;9581;49.484;8.556;2022-09-28T10:52:04;17.10;99.90
18898;DHT22;9581;49.484;8.556;2022-09-28T10:54:33;17.50;99.90
18898;DHT22;9581;49.484;8.556;2022-09-28T10:57:01;17.70;99.90
18898;DHT22;9581;49.484;8.556;2022-09-28T10:59:37;16.70;99.90
18898;DHT22;9581;49.484;8.556;2022-09-28T11:02:18;16.30;99.90
18898;DHT22;9581;49.484;8.556;2022-09-28T11:04:52;17.20;99.90
18898;DHT22;9581;49.484;8.556;2022-09-28T11:07:21;16.30;99.90
18898;DHT22;9581;49.484;8.556;2022-09-28T11:09:50;16.30;99.90
18898;DHT22;9581;49.484;8.556;2022-09-28T11:12:20;16.70;99.90
18898;DHT22;9581;49.484;8.556;2022-09-28T11:14:47;16.80;99.90
18898;DHT22;9581;49.484;8.556;2022-09-28T11:17:25;16.70;99.90
18898;DHT22;9581;49.484;8.556;2022-09-28T11:19:53;15.80;99.90
18898;DHT22;9581;49.484;8.556;2022-09-28T11:22:26;15.40;99.90
18898;DHT22;9581;49.484;8.556;2022-09-28T11:25:19;15.60;99.90
18898;DHT22;9581;49.484;8.556;2022-09-28T11:27:56;15.10;99.90
18898;DHT22;9581;49.484;8.556;2022-09-28T11:30:26;14.70;99.90
18898;DHT22;9581;49.484;8.556;2022-09-28T11:33:01;14.80;99.90
18898;DHT22;9581;49.484;8.556;2022-09-28T11:35:36;14.70;99.90
18898;DHT22;9581;49.484;8.556;2022-09-28T11:38:17;14.50;99.90
18898;DHT22;9581;49.484;8.556;2022-09-28T11:40:56;14.60;99.90
18898;DHT22;9581;49.484;8.556;2022-09-28T11:43:42;14.40;99.90
18898;DHT22;9581;49.484;8.556;2022-09-28T11:46:16;14.20;99.90
18898;DHT22;9581;49.484;8.556;2022-09-28T11:48:53;14.50;99.90
18898;DHT22;9581;49.484;8.556;2022-09-28T11:51:25;14.40;99.90
18898;DHT22;9581;49.484;8.556;2022-09-28T11:53:55;14.40;99.90
18898;DHT22;9581;49.484;8.556;2022-09-28T11:56:31;14.70;99.90
18898;DHT22;9581;49.484;8.556;2022-09-28T11:59:03;14.70;99.90
18898;DHT22;9581;49.484;8.556;2022-09-28T12:01:35;15.00;99.90
18898;DHT22;9581;49.484;8.556;2022-09-28T12:04:10;15.10;99.90
18898;DHT22;9581;49.484;8.556;2022-09-28T12:06:42;15.30;99.90
18898;DHT22;9581;49.484;8.556;2022-09-28T12:09:16;15.90;99.90
18898;DHT22;9581;49.484;8.556;2022-09-28T12:11:50;15.70;99.90
18898;DHT22;9581;49.484;8.556;2022-09-28T12:14:20;15.90;99.90
18898;DHT22;9581;49.484;8.556;2022-09-28T12:16:52;16.10;99.90
18898;DHT22;9581;49.484;8.556;2022-09-28T12:19:26;15.90;99.90
18898;DHT22;9581;49.484;8.556;2022-09-28T12:22:00;15.90;99.90
18898;DHT22;9581;49.484;8.556;2022-09-28T12:24:31;16.60;99.90
18898;DHT22;9581;49.484;8.556;2022-09-28T12:27:02;16.90;99.90
18898;DHT22;9581;49.484;8.556;2022-09-28T12:29:32;16.90;99.90
18898;DHT22;9581;49.484;8.556;2022-09-28T12:32:08;16.80;99.90
18898;DHT22;9581;49.484;8.556;2022-09-28T12:34:41;16.60;99.90
18898;DHT22;9581;49.484;8.556;2022-09-28T12:37:22;16.30;99.90
18898;DHT22;9581;49.484;8.556;2022-09-28T12:40:26;16.50;99.90
18898;DHT22;9581;49.484;8.556;2022-09-28T12:43:05;16.70;99.90
18898;DHT22;9581;49.484;8.556;2022-09-28T12:45:48;16.50;99.90
18898;DHT22;9581;49.484;8.556;2022-09-28T12:48:31;16.40;99.90
18898;DHT22;9581;49.484;8.556;2022-09-28T12:51:15;16.50;99.90
18898;DHT22;9581;49.484;8.556;2022-09-28T12:53:57;16.40;99.90
18898;DHT22;9581;49.484;8.556;2022-09-28T12:56:32;16.60;99.90
18898;DHT22;9581;49.484;8.556;2022-09-28T12:59:12;16.50;99.90
18898;DHT22;9581;49.484;8.556;2022-09-28T13:04:52;16.60;99.90
18898;DHT22;9581;49.484;8.556;2022-09-28T13:07:31;16.50;99.90
18898;DHT22;9581;49.484;8.556;2022-09-28T13:10:09;16.50;99.90
18898;DHT22;9581;49.484;8.556;2022-09-28T13:12:48;16.50;99.90
18898;DHT22;9581;49.484;8.556;2022-09-28T13:15:31;16.60;99.90
18898;DHT22;9581;49.484;8.556;2022-09-28T13:18:05;16.80;99.90
18898;DHT22;9581;49.484;8.556;2022-09-28T13:20:39;16.70;99.90
18898;DHT22;9581;49.484;8.556;2022-09-28T13:23:15;16.60;99.90
18898;DHT22;9581;49.484;8.556;2022-09-28T13:25:48;16.40;99.90
18898;DHT22;9581;49.484;8.556;2022-09-28T13:28:18;16.30;99.90
18898;DHT22;9581;49.484;8.556;2022-09-28T13:30:47;16.30;99.90
18898;DHT22;9581;49.484;8.556;2022-09-28T13:33:20;16.30;99.90
18898;DHT22;9581;49.484;8.556;2022-09-28T13:35:50;16.20;99.90
18898;DHT22;9581;49.484;8.556;2022-09-28T13:38:45;16.30;99.90
18898;DHT22;9581;49.484;8.556;2022-09-28T13:41:17;16.50;99.90
18898;DHT22;9581;49.484;8.556;2022-09-28T13:44:14;17.00;99.90
18898;DHT22;9581;49.484;8.556;2022-09-28T13:46:51;17.00;99.90
18898;DHT22;9581;49.484;8.556;2022-09-28T13:49:28;17.10;99.90
18898;DHT22;9581;49.484;8.556;2022-09-28T13:52:03;17.50;99.90
18898;DHT22;9581;49.484;8.556;2022-09-28T13:54:57;17.70;99.90
18898;DHT22;9581;49.484;8.556;2022-09-28T13:57:33;17.80;99.90
18898;DHT22;9581;49.484;8.556;2022-09-28T14:00:12;17.70;99.90
18898;DHT22;9581;49.484;8.556;2022-09-28T14:02:44;17.70;99.90
18898;DHT22;9581;49.484;8.556;2022-09-28T14:05:32;17.70;99.90
18898;DHT22;9581;49.484;8.556;2022-09-28T14:08:26;17.50;99.90
18898;DHT22;9581;49.484;8.556;2022-09-28T14:10:55;17.40;99.90
18898;DHT22;9581;49.484;8.556;2022-09-28T14:13:56;17.50;99.90
18898;DHT22;9581;49.484;8.556;2022-09-28T14:16:25;17.40;99.90
18898;DHT22;9581;49.484;8.556;2022-09-28T14:18:56;17.40;99.90
18898;DHT22;9581;49.484;8.556;2022-09-28T14:22:04;17.00;99.90
18898;DHT22;9581;49.484;8.556;2022-09-28T14:24:56;16.70;99.90
18898;DHT22;9581;49.484;8.556;2022-09-28T14:27:42;16.70;99.90
18898;DHT22;9581;49.484;8.556;2022-09-28T14:30:19;16.70;99.90
18898;DHT22;9581;49.484;8.556;2022-09-28T14:32:54;16.90;99.90
18898;DHT22;9581;49.484;8.556;2022-09-28T14:35:27;17.00;99.90
18898;DHT22;9581;49.484;8.556;2022-09-28T14:37:59;16.90;99.90
18898;DHT22;9581;49.484;8.556;2022-09-28T14:40:57;17.10;99.90
18898;DHT22;9581;49.484;8.556;2022-09-28T14:44:00;16.80;99.90
18898;DHT22;9581;49.484;8.556;2022-09-28T14:46:33;16.90;99.90
18898;DHT22;9581;49.484;8.556;2022-09-28T14:49:02;16.90;99.90
18898;DHT22;9581;49.484;8.556;2022-09-28T14:54:48;16.70;99.90
18898;DHT22;9581;49.484;8.556;2022-09-28T14:57:19;16.30;99.90
18898;DHT22;9581;49.484;8.556;2022-09-28T14:59:47;16.30;99.90
18898;DHT22;9581;49.484;8.556;2022-09-28T15:02:32;16.40;99.90
18898;DHT22;9581;49.484;8.556;2022-09-28T15:05:11;16.90;99.90
18898;DHT22;9581;49.484;8.556;2022-09-28T15:07:44;17.20;99.90
18898;DHT22;9581;49.484;8.556;2022-09-28T15:10:23;18.00;99.90
18898;DHT22;9581;49.484;8.556;2022-09-28T15:12:53;21.50;99.90
18898;DHT22;9581;49.484;8.556;2022-09-28T15:15:26;24.20;96.20
18898;DHT22;9581;49.484;8.556;2022-09-28T15:18:03;24.40;93.70
18898;DHT22;9581;49.484;8.556;2022-09-28T15:20:36;24.80;93.50
18898;DHT22;9581;49.484;8.556;2022-09-28T15:23:03;21.50;94.80
18898;DHT22;9581;49.484;8.556;2022-09-28T15:25:31;19.50;97.10
18898;DHT22;9581;49.484;8.556;2022-09-28T15:28:01;19.20;99.90
18898;DHT22;9581;49.484;8.556;2022-09-28T15:30:42;18.70;99.90
18898;DHT22;9581;49.484;8.556;2022-09-28T15:33:22;18.30;99.90
18898;DHT22;9581;49.484;8.556;2022-09-28T15:36:07;17.90;99.90
18898;DHT22;9581;49.484;8.556;2022-09-28T15:38:39;17.30;99.90
18898;DHT22;9581;49.484;8.556;2022-09-28T15:41:07;17.30;99.90
18898;DHT22;9581;49.484;8.556;2022-09-28T15:43:35;16.30;99.90
18898;DHT22;9581;49.484;8.556;2022-09-28T15:46:06;16.10;99.90
18898;DHT22;9581;49.484;8.556;2022-09-28T15:48:41;16.20;99.90
18898;DHT22;9581;49.484;8.556;2022-09-28T15:51:12;16.10;99.90
18898;DHT22;9581;49.484;8.556;2022-09-28T15:53:41;16.20;99.90
18898;DHT22;9581;49.484;8.556;2022-09-28T15:56:09;16.20;99.90
18898;DHT22;9581;49.484;8.556;2022-09-28T15:58:37;15.90;99.90
18898;DHT22;9581;49.484;8.556;2022-09-28T16:01:30;15.80;99.90
18898;DHT22;9581;49.484;8.556;2022-09-28T16:06:42;15.60;99.90
18898;DHT22;9581;49.484;8.556;2022-09-28T16:09:29;15.40;99.90
18898;DHT22;9581;49.484;8.556;2022-09-28T16:11:56;15.30;99.90
18898;DHT22;9581;49.484;8.556;2022-09-28T16:14:24;15.00;99.90
18898;DHT22;9581;49.484;8.556;2022-09-28T16:16:53;15.00;99.90
18898;DHT22;9581;49.484;8.556;2022-09-28T16:19:22;15.00;99.90
18898;DHT22;9581;49.484;8.556;2022-09-28T16:21:50;15.00;99.90
18898;DHT22;9581;49.484;8.556;2022-09-28T16:24:22;15.00;99.90
18898;DHT22;9581;49.484;8.556;2022-09-28T16:26:55;14.80;99.90
18898;DHT22;9581;49.484;8.556;2022-09-28T16:29:25;14.70;99.90
18898;DHT22;9581;49.484;8.556;2022-09-28T16:31:54;14.60;99.90
18898;DHT22;9581;49.484;8.556;2022-09-28T16:34:23;14.80;99.90